createdAt,value
2022-11-23T00:00:53.408Z,28.42
2022-11-23T00:03:21.226Z,26.17
2022-11-23T00:05:54.472Z,25.58
2022-11-23T00:08:22.140Z,25.10
2022-11-23T00:10:49.808Z,26.35
2022-11-23T00:13:20.037Z,31.02
2022-11-23T00:15:49.015Z,26.17
2022-11-23T00:18:17.165Z,29.75
2022-11-23T00:20:44.754Z,26.75
2022-11-23T00:23:12.491Z,31.55
2022-11-23T00:25:40.094Z,28.40
2022-11-23T00:28:07.866Z,30.98
2022-11-23T00:30:35.582Z,28.77
2022-11-23T00:33:04.506Z,29.33
2022-11-23T00:35:32.539Z,28.65
2022-11-23T00:38:02.200Z,31.50
2022-11-23T00:40:29.764Z,24.60
2022-11-23T00:42:57.467Z,26.77
2022-11-23T00:45:25.031Z,26.08
2022-11-23T00:47:54.410Z,27.08
2022-11-23T00:50:31.935Z,31.60
2022-11-23T00:52:59.482Z,26.33
2022-11-23T00:55:29.745Z,23.88
2022-11-23T00:57:58.780Z,27.48
2022-11-23T01:00:29.457Z,25.58
2022-11-23T01:02:58.218Z,24.75
2022-11-23T01:05:27.144Z,24.95
2022-11-23T01:07:57.443Z,26.90
2022-11-23T01:10:25.778Z,22.73
2022-11-23T01:12:53.919Z,27.40
2022-11-23T01:15:23.643Z,27.20
2022-11-23T01:17:56.236Z,23.60
2022-11-23T01:20:23.812Z,27.70
2022-11-23T01:22:53.789Z,25.02
2022-11-23T01:25:21.546Z,25.35
2022-11-23T01:27:49.181Z,26.25
2022-11-23T01:30:17.409Z,28.88
2022-11-23T01:32:45.023Z,24.67
2022-11-23T01:35:12.984Z,25.45
2022-11-23T01:37:40.522Z,27.45
2022-11-23T01:40:12.686Z,29.33
2022-11-23T01:42:53.635Z,24.60
2022-11-23T01:45:41.534Z,24.65
2022-11-23T01:48:16.080Z,24.85
2022-11-23T01:50:45.721Z,25.65
2022-11-23T01:53:13.573Z,24.77
2022-11-23T01:55:44.185Z,27.13
2022-11-23T01:58:15.242Z,23.80
2022-11-23T02:00:43.419Z,23.50
2022-11-23T02:03:11.336Z,27.65
2022-11-23T02:05:43.398Z,24.35
2022-11-23T02:08:18.103Z,25.38
2022-11-23T02:10:48.051Z,25.05
2022-11-23T02:13:16.207Z,27.25
2022-11-23T02:15:44.130Z,25.38
2022-11-23T02:18:16.701Z,21.00
2022-11-23T02:20:45.767Z,23.95
2022-11-23T02:23:25.839Z,23.92
2022-11-23T02:26:02.471Z,21.50
2022-11-23T02:28:35.554Z,23.30
2022-11-23T02:31:03.602Z,27.40
2022-11-23T02:33:31.438Z,27.85
2022-11-23T02:36:02.814Z,20.52
2022-11-23T02:38:34.160Z,20.77
2022-11-23T02:41:03.620Z,23.55
2022-11-23T02:43:31.351Z,24.15
2022-11-23T02:46:02.891Z,26.42
2022-11-23T02:48:30.553Z,24.55
2022-11-23T02:50:58.288Z,27.08
2022-11-23T02:53:26.124Z,24.08
2022-11-23T02:55:55.502Z,22.75
2022-11-23T02:58:26.751Z,26.25
2022-11-23T03:00:54.539Z,26.58
2022-11-23T03:03:23.226Z,21.45
2022-11-23T03:05:51.485Z,24.42
2022-11-23T03:08:19.160Z,22.95
2022-11-23T03:10:47.225Z,28.45
2022-11-23T03:13:14.801Z,25.55
2022-11-23T03:15:44.239Z,23.27
2022-11-23T03:18:12.499Z,26.05
2022-11-23T03:20:40.674Z,22.77
2022-11-23T03:23:08.596Z,27.77
2022-11-23T03:25:36.430Z,25.33
2022-11-23T03:28:06.128Z,26.42
2022-11-23T03:30:34.370Z,25.20
2022-11-23T03:33:05.794Z,21.55
2022-11-23T03:35:33.617Z,25.25
2022-11-23T03:38:22.296Z,24.00
2022-11-23T03:40:50.079Z,22.33
2022-11-23T03:43:25.618Z,19.23
2022-11-23T03:45:53.371Z,23.17
2022-11-23T03:48:22.449Z,24.15
2022-11-23T03:50:50.301Z,24.27
2022-11-23T03:53:18.019Z,21.17
2022-11-23T03:55:47.623Z,24.25
2022-11-23T03:58:15.876Z,23.88
2022-11-23T04:00:43.650Z,27.00
2022-11-23T04:03:13.835Z,24.30
2022-11-23T04:06:01.673Z,20.10
2022-11-23T04:08:47.642Z,21.63
2022-11-23T04:11:22.705Z,22.15
2022-11-23T04:13:50.815Z,21.75
2022-11-23T04:16:19.681Z,21.80
2022-11-23T04:18:47.418Z,22.48
2022-11-23T04:21:16.532Z,22.45
2022-11-23T04:23:45.209Z,20.92
2022-11-23T04:26:15.516Z,23.52
2022-11-23T04:28:45.943Z,19.95
2022-11-23T04:31:14.156Z,20.25
2022-11-23T04:33:52.200Z,17.70
2022-11-23T04:36:22.918Z,17.42
2022-11-23T04:38:50.859Z,22.25
2022-11-23T04:41:23.210Z,18.63
2022-11-23T04:43:51.846Z,17.92
2022-11-23T04:46:19.912Z,20.45
2022-11-23T04:48:47.988Z,21.90
2022-11-23T04:51:17.575Z,20.75
2022-11-23T04:53:46.760Z,18.73
2022-11-23T04:56:14.932Z,20.00
2022-11-23T04:58:44.220Z,21.85
2022-11-23T05:01:12.220Z,22.63
2022-11-23T05:03:59.455Z,20.80
2022-11-23T05:06:49.269Z,19.98
2022-11-23T05:09:21.772Z,19.55
2022-11-23T05:12:02.580Z,20.77
2022-11-23T05:14:31.781Z,21.85
2022-11-23T05:16:59.788Z,18.67
2022-11-23T05:19:27.483Z,18.52
2022-11-23T05:21:55.378Z,20.20
2022-11-23T05:24:26.215Z,18.48
2022-11-23T05:27:09.161Z,18.48
2022-11-23T05:29:37.445Z,20.38
2022-11-23T05:32:07.278Z,20.38
2022-11-23T05:34:35.045Z,22.30
2022-11-23T05:37:04.655Z,19.95
2022-11-23T05:39:34.489Z,20.60
2022-11-23T05:42:02.564Z,20.60
2022-11-23T05:44:42.713Z,17.17
2022-11-23T05:47:18.575Z,22.08
2022-11-23T05:49:46.356Z,23.52
2022-11-23T05:52:15.544Z,19.02
2022-11-23T05:54:49.888Z,18.85
2022-11-23T05:57:17.784Z,20.60
2022-11-23T05:59:46.703Z,21.45
2022-11-23T06:02:21.181Z,22.90
2022-11-23T06:04:52.577Z,21.77
2022-11-23T06:07:26.589Z,22.13
2022-11-23T06:10:08.333Z,21.10
2022-11-23T06:12:39.880Z,21.45
2022-11-23T06:15:11.995Z,19.67
2022-11-23T06:17:40.809Z,18.92
2022-11-23T06:20:13.293Z,19.70
2022-11-23T06:22:44.975Z,20.80
2022-11-23T06:25:16.811Z,20.33
2022-11-23T06:27:55.762Z,21.27
2022-11-23T06:30:27.800Z,19.00
2022-11-23T06:32:59.421Z,19.05
2022-11-23T06:35:27.337Z,20.85
2022-11-23T06:37:58.126Z,20.08
2022-11-23T06:40:28.697Z,20.92
2022-11-23T06:42:59.564Z,22.45
2022-11-23T06:45:35.435Z,19.45
2022-11-23T06:48:07.690Z,20.73
2022-11-23T06:50:41.465Z,17.70
2022-11-23T06:53:12.188Z,23.85
2022-11-23T06:55:49.333Z,20.55
2022-11-23T06:58:19.630Z,18.73
2022-11-23T07:00:47.556Z,17.02
2022-11-23T07:03:20.909Z,17.17
2022-11-23T07:05:54.080Z,19.08
2022-11-23T07:08:29.132Z,20.17
2022-11-23T07:11:02.626Z,20.92
2022-11-23T07:13:30.888Z,16.73
2022-11-23T07:15:59.561Z,16.40
2022-11-23T07:18:28.103Z,19.42
2022-11-23T07:21:03.177Z,15.98
2022-11-23T07:23:31.005Z,17.13
2022-11-23T07:26:03.437Z,16.80
2022-11-23T07:28:33.028Z,16.42
2022-11-23T07:31:00.761Z,18.30
2022-11-23T07:33:29.739Z,19.52
2022-11-23T07:36:02.662Z,16.10
2022-11-23T07:38:33.396Z,17.10
2022-11-23T07:41:03.757Z,15.25
2022-11-23T07:44:02.165Z,14.90
2022-11-23T07:46:37.375Z,13.68
2022-11-23T07:49:05.105Z,15.43
2022-11-23T07:51:33.802Z,17.38
2022-11-23T07:54:01.699Z,15.68
2022-11-23T07:56:29.433Z,13.23
2022-11-23T07:58:57.443Z,14.52
2022-11-23T08:02:14.882Z,15.00
2022-11-23T08:04:50.321Z,14.07
2022-11-23T08:07:18.123Z,16.23
2022-11-23T08:09:47.373Z,14.65
2022-11-23T08:12:15.170Z,16.42
2022-11-23T08:14:42.887Z,17.60
2022-11-23T08:17:11.881Z,18.17
2022-11-23T08:19:45.342Z,15.07
2022-11-23T08:22:15.991Z,15.52
2022-11-23T08:24:46.497Z,14.93
2022-11-23T08:27:14.156Z,15.05
2022-11-23T08:30:11.991Z,13.30
2022-11-23T08:32:56.354Z,14.73
2022-11-23T08:35:25.235Z,16.00
2022-11-23T08:37:52.804Z,13.63
2022-11-23T08:40:24.965Z,14.07
2022-11-23T08:42:53.316Z,14.88
2022-11-23T08:45:21.092Z,13.13
2022-11-23T08:47:48.776Z,11.95
2022-11-23T08:50:24.468Z,15.43
2022-11-23T08:52:56.578Z,13.07
2022-11-23T08:55:28.057Z,12.43
2022-11-23T08:57:56.654Z,14.70
2022-11-23T09:00:24.515Z,14.32
2022-11-23T09:02:58.207Z,13.27
2022-11-23T09:05:27.277Z,13.05
2022-11-23T09:07:54.832Z,19.42
2022-11-23T09:10:22.515Z,11.77
2022-11-23T09:12:50.187Z,13.82
2022-11-23T09:15:17.947Z,12.35
2022-11-23T09:17:46.055Z,9.45
2022-11-23T09:20:14.122Z,12.38
2022-11-23T09:22:43.725Z,13.13
2022-11-23T09:25:11.973Z,10.70
2022-11-23T09:27:39.691Z,10.90
2022-11-23T09:30:08.933Z,14.43
2022-11-23T09:32:36.595Z,10.30
2022-11-23T09:35:04.506Z,10.15
2022-11-23T09:37:32.283Z,12.93
2022-11-23T09:40:01.807Z,10.43
2022-11-23T09:42:54.762Z,9.15
2022-11-23T09:45:31.544Z,9.35
2022-11-23T09:48:16.137Z,10.55
2022-11-23T09:50:48.727Z,12.02
2022-11-23T09:53:21.298Z,11.23
2022-11-23T09:55:55.145Z,13.07
2022-11-23T09:58:24.182Z,8.93
2022-11-23T10:01:00.315Z,11.43
2022-11-23T10:03:30.067Z,7.72
2022-11-23T10:06:05.661Z,9.73
2022-11-23T10:08:44.170Z,10.27
2022-11-23T10:11:36.223Z,10.70
2022-11-23T10:14:15.536Z,10.00
2022-11-23T10:16:50.609Z,9.23
2022-11-23T10:19:28.017Z,12.73
2022-11-23T10:22:06.497Z,7.88
2022-11-23T10:24:39.262Z,11.75
2022-11-23T10:27:15.108Z,9.48
2022-11-23T10:29:43.497Z,13.75
2022-11-23T10:32:27.710Z,9.55
2022-11-23T10:35:05.163Z,7.78
2022-11-23T10:37:33.520Z,9.32
2022-11-23T10:40:01.301Z,6.82
2022-11-23T10:42:36.701Z,8.77
2022-11-23T10:45:05.902Z,7.88
2022-11-23T10:47:42.877Z,10.30
2022-11-23T10:50:25.798Z,10.13
2022-11-23T10:52:56.381Z,8.18
2022-11-23T10:55:28.636Z,8.85
2022-11-23T10:58:00.508Z,9.52
2022-11-23T11:00:31.304Z,6.55
2022-11-23T11:03:00.605Z,9.27
2022-11-23T11:08:22.900Z,6.65
2022-11-23T11:11:02.507Z,7.47
2022-11-23T11:13:33.635Z,9.48
2022-11-23T11:16:03.244Z,7.65
2022-11-23T11:18:33.051Z,7.40
2022-11-23T11:21:04.025Z,6.47
2022-11-23T11:23:33.986Z,9.45
2022-11-23T11:26:11.102Z,6.93
2022-11-23T11:28:43.061Z,6.75
2022-11-23T11:31:25.085Z,5.55
2022-11-23T11:33:59.269Z,9.48
2022-11-23T11:36:31.472Z,7.50
2022-11-23T11:39:17.727Z,8.40
2022-11-23T11:41:50.404Z,7.57
2022-11-23T11:44:22.829Z,7.43
2022-11-23T11:46:57.648Z,8.32
2022-11-23T11:49:36.569Z,5.28
2022-11-23T11:52:09.771Z,7.80
2022-11-23T11:54:59.256Z,9.45
2022-11-23T11:57:31.873Z,8.32
2022-11-23T12:00:02.841Z,6.75
2022-11-23T12:02:36.596Z,11.90
2022-11-23T12:05:12.958Z,6.60
2022-11-23T12:07:50.124Z,7.38
2022-11-23T12:10:22.578Z,10.05
2022-11-23T12:12:50.664Z,8.27
2022-11-23T12:18:52.334Z,7.82
2022-11-23T12:21:40.495Z,6.65
2022-11-23T12:24:15.848Z,8.93
2022-11-23T12:26:50.829Z,5.18
2022-11-23T12:29:32.701Z,8.88
2022-11-23T12:32:10.965Z,7.68
2022-11-23T12:35:02.468Z,6.15
2022-11-23T12:37:41.959Z,6.32
2022-11-23T12:40:37.948Z,4.63
2022-11-23T12:43:13.971Z,4.55
2022-11-23T12:45:54.364Z,6.63
2022-11-23T12:48:38.806Z,5.57
2022-11-23T12:51:18.258Z,9.80
2022-11-23T12:53:54.672Z,5.93
2022-11-23T12:56:39.218Z,6.70
2022-11-23T12:59:10.790Z,3.78
2022-11-23T13:01:43.631Z,3.30
2022-11-23T13:04:33.650Z,9.27
2022-11-23T13:07:47.750Z,5.38
2022-11-23T13:10:37.291Z,6.20
2022-11-23T13:13:23.675Z,6.13
2022-11-23T13:16:09.113Z,3.67
2022-11-23T13:18:53.767Z,5.53
2022-11-23T13:21:31.055Z,4.53
2022-11-23T13:23:58.819Z,6.88
2022-11-23T13:26:28.193Z,4.47
2022-11-23T13:28:58.347Z,3.88
2022-11-23T13:31:30.313Z,6.75
2022-11-23T13:34:00.028Z,5.95
2022-11-23T13:37:14.934Z,4.13
2022-11-23T13:40:08.804Z,3.33
2022-11-23T13:42:36.599Z,7.13
2022-11-23T13:45:36.780Z,4.80
2022-11-23T13:48:34.133Z,4.45
2022-11-23T13:51:03.374Z,6.50
2022-11-23T13:53:34.632Z,5.95
2022-11-23T13:56:22.532Z,5.72
2022-11-23T13:58:55.445Z,5.43
2022-11-23T14:02:05.323Z,5.60
2022-11-23T14:04:34.872Z,5.45
2022-11-23T14:07:06.909Z,3.28
2022-11-23T14:09:44.749Z,6.60
2022-11-23T14:12:27.234Z,3.97
2022-11-23T14:15:08.005Z,6.57
2022-11-23T14:18:16.955Z,5.38
2022-11-23T14:21:00.660Z,6.22
2022-11-23T14:24:12.708Z,5.78
2022-11-23T14:27:04.245Z,3.65
2022-11-23T14:30:07.796Z,5.57
2022-11-23T14:32:48.650Z,4.80
2022-11-23T14:35:29.258Z,5.88
2022-11-23T14:38:10.334Z,4.72
2022-11-23T14:40:56.184Z,4.97
2022-11-23T14:43:30.269Z,6.60
2022-11-23T14:46:02.554Z,5.55
2022-11-23T14:48:32.174Z,3.75
2022-11-23T14:51:02.601Z,6.28
2022-11-23T14:53:36.031Z,5.22
2022-11-23T14:56:03.990Z,4.40
2022-11-23T14:58:34.459Z,4.43
2022-11-23T15:01:04.886Z,7.13
2022-11-23T15:03:49.962Z,3.88
2022-11-23T15:06:23.020Z,9.63
2022-11-23T15:08:58.281Z,9.45
2022-11-23T15:11:29.759Z,7.15
2022-11-23T15:14:03.137Z,7.88
2022-11-23T15:16:31.245Z,6.25
2022-11-23T15:18:58.915Z,7.90
2022-11-23T15:21:28.369Z,7.65
2022-11-23T15:23:58.283Z,6.68
2022-11-23T15:26:47.562Z,5.97
2022-11-23T15:29:37.713Z,5.57
2022-11-23T15:32:32.747Z,8.40
2022-11-23T15:35:04.279Z,10.05
2022-11-23T15:37:32.674Z,9.02
2022-11-23T15:40:01.077Z,7.78
2022-11-23T15:42:31.639Z,8.38
2022-11-23T15:45:00.665Z,6.32
2022-11-23T15:47:31.471Z,11.25
2022-11-23T15:50:03.859Z,8.25
2022-11-23T15:52:36.361Z,12.38
2022-11-23T15:55:09.614Z,9.55
2022-11-23T15:57:39.026Z,7.15
2022-11-23T16:00:19.908Z,12.05
2022-11-23T16:02:47.814Z,12.00
2022-11-23T16:05:22.225Z,8.70
2022-11-23T16:07:53.492Z,12.15
2022-11-23T16:10:26.990Z,7.93
2022-11-23T16:12:56.832Z,12.63
2022-11-23T16:15:45.653Z,13.77
2022-11-23T16:18:23.499Z,8.60
2022-11-23T16:20:57.364Z,7.68
2022-11-23T16:23:27.040Z,9.95
2022-11-23T16:25:57.262Z,9.57
2022-11-23T16:28:28.816Z,10.93
2022-11-23T16:30:58.220Z,13.48
2022-11-23T16:33:26.379Z,16.17
2022-11-23T16:36:12.527Z,9.60
2022-11-23T16:38:53.907Z,7.70
2022-11-23T16:41:44.973Z,9.27
2022-11-23T16:44:19.043Z,9.70
2022-11-23T16:46:51.295Z,7.45
2022-11-23T16:49:20.926Z,7.85
2022-11-23T16:51:56.420Z,12.20
2022-11-23T16:54:25.549Z,9.52
2022-11-23T16:56:53.707Z,12.52
2022-11-23T16:59:23.792Z,11.30
2022-11-23T17:01:57.271Z,9.93
2022-11-23T17:04:27.392Z,7.53
2022-11-23T17:06:59.565Z,10.20
2022-11-23T17:09:29.451Z,9.52
2022-11-23T17:11:59.488Z,8.93
2022-11-23T17:14:29.734Z,9.73
2022-11-23T17:17:02.570Z,12.07
2022-11-23T17:19:31.309Z,8.95
2022-11-23T17:22:02.077Z,9.00
2022-11-23T17:24:30.093Z,8.30
2022-11-23T17:27:01.358Z,12.85
2022-11-23T17:29:34.680Z,9.65
2022-11-23T17:32:06.843Z,12.20
2022-11-23T17:34:34.596Z,12.90
2022-11-23T17:37:02.546Z,9.48
2022-11-23T17:39:31.106Z,9.93
2022-11-23T17:42:04.571Z,10.77
2022-11-23T17:44:32.822Z,8.18
2022-11-23T17:47:03.152Z,10.57
2022-11-23T17:49:33.232Z,10.13
2022-11-23T17:52:03.624Z,8.98
2022-11-23T17:54:31.465Z,11.35
2022-11-23T17:56:59.664Z,10.32
2022-11-23T17:59:27.545Z,7.40
2022-11-23T18:01:55.405Z,7.47
2022-11-23T18:04:23.163Z,11.02
2022-11-23T18:06:52.581Z,9.07
2022-11-23T18:09:20.240Z,9.15
2022-11-23T18:11:48.179Z,10.77
2022-11-23T18:14:18.015Z,9.48
2022-11-23T18:16:46.076Z,9.25
2022-11-23T18:19:15.295Z,11.75
2022-11-23T18:21:43.106Z,8.52
2022-11-23T18:24:12.054Z,8.80
2022-11-23T18:26:40.380Z,8.70
2022-11-23T18:29:10.688Z,9.18
2022-11-23T18:31:42.141Z,7.45
2022-11-23T18:34:10.078Z,11.10
2022-11-23T18:36:37.781Z,7.75
2022-11-23T18:39:07.410Z,9.40
2022-11-23T18:41:36.734Z,8.18
2022-11-23T18:44:05.212Z,6.35
2022-11-23T18:46:33.377Z,7.28
2022-11-23T18:49:01.088Z,9.50
2022-11-23T18:51:28.685Z,7.97
2022-11-23T18:53:57.910Z,12.70
2022-11-23T18:56:25.610Z,8.85
2022-11-23T18:58:54.776Z,7.60
2022-11-23T19:01:24.357Z,9.52
2022-11-23T19:03:53.793Z,11.02
2022-11-23T19:06:23.288Z,7.70
2022-11-23T19:08:53.533Z,14.82
2022-11-23T19:11:22.723Z,10.30
2022-11-23T19:13:52.869Z,12.00
2022-11-23T19:16:23.940Z,9.57
2022-11-23T19:18:55.443Z,9.73
2022-11-23T19:21:25.064Z,9.90
2022-11-23T19:23:54.364Z,13.43
2022-11-23T19:26:22.947Z,8.75
2022-11-23T19:28:51.927Z,9.75
2022-11-23T19:31:22.569Z,9.43
2022-11-23T19:33:52.490Z,7.97
2022-11-23T19:36:28.651Z,8.25
2022-11-23T19:38:57.514Z,9.27
2022-11-23T19:41:30.230Z,8.75
2022-11-23T19:44:00.138Z,11.90
2022-11-23T19:46:30.676Z,11.25
2022-11-23T19:48:59.156Z,10.45
2022-11-23T19:51:29.129Z,11.40
2022-11-23T19:53:58.084Z,12.80
2022-11-23T19:56:28.878Z,12.13
2022-11-23T19:58:58.175Z,11.45
2022-11-23T20:01:36.437Z,15.10
2022-11-23T20:04:09.551Z,13.68
2022-11-23T20:06:38.851Z,12.95
2022-11-23T20:09:08.380Z,9.32
2022-11-23T20:11:37.152Z,11.80
2022-11-23T20:14:08.017Z,13.48
2022-11-23T20:16:37.710Z,12.05
2022-11-23T20:19:08.430Z,7.13
2022-11-23T20:21:38.055Z,14.40
2022-11-23T20:24:07.834Z,9.13
2022-11-23T20:26:36.625Z,13.13
2022-11-23T20:29:05.760Z,17.42
2022-11-23T20:31:34.331Z,12.13
2022-11-23T20:34:06.597Z,14.55
2022-11-23T20:36:38.517Z,10.48
2022-11-23T20:39:10.962Z,9.30
2022-11-23T20:41:39.960Z,11.70
2022-11-23T20:44:11.273Z,7.30
2022-11-23T20:49:27.416Z,10.65
2022-11-23T20:51:56.802Z,9.77
2022-11-23T20:54:24.454Z,8.73
2022-11-23T20:56:52.173Z,9.00
2022-11-23T20:59:21.016Z,7.75
2022-11-23T21:01:49.586Z,9.90
2022-11-23T21:04:17.676Z,6.68
2022-11-23T21:06:45.832Z,7.13
2022-11-23T21:09:17.765Z,8.70
2022-11-23T21:12:03.213Z,7.88
2022-11-23T21:14:35.367Z,8.35
2022-11-23T21:17:06.042Z,9.13
2022-11-23T21:19:36.374Z,8.18
2022-11-23T21:22:06.865Z,7.32
2022-11-23T21:24:36.975Z,9.80
2022-11-23T21:27:06.016Z,7.13
2022-11-23T21:29:33.728Z,8.10
2022-11-23T21:32:01.659Z,8.77
2022-11-23T21:34:30.779Z,9.43
2022-11-23T21:36:59.583Z,12.07
2022-11-23T21:39:29.935Z,8.70
2022-11-23T21:41:59.220Z,8.65
2022-11-23T21:44:26.944Z,11.30
2022-11-23T21:46:57.001Z,9.95
2022-11-23T21:49:30.895Z,9.15
2022-11-23T21:51:59.051Z,10.80
2022-11-23T21:54:27.114Z,8.25
2022-11-23T21:56:55.272Z,10.32
2022-11-23T21:59:24.867Z,6.80
2022-11-23T22:01:54.271Z,9.02
2022-11-23T22:04:22.366Z,9.57
2022-11-23T22:06:50.340Z,10.23
2022-11-23T22:09:17.975Z,10.43
2022-11-23T22:11:45.658Z,7.18
2022-11-23T22:14:15.480Z,8.10
2022-11-23T22:16:46.310Z,11.95
2022-11-23T22:19:15.579Z,6.88
2022-11-23T22:21:45.600Z,9.65
2022-11-23T22:24:18.245Z,9.30
2022-11-23T22:26:47.649Z,9.43
2022-11-23T22:29:15.525Z,10.27
2022-11-23T22:31:44.881Z,10.50
2022-11-23T22:34:13.885Z,9.20
2022-11-23T22:36:42.407Z,9.23
2022-11-23T22:39:10.951Z,7.50
2022-11-23T22:41:39.215Z,10.02
2022-11-23T22:44:08.550Z,7.93
2022-11-23T22:46:37.704Z,8.77
2022-11-23T22:49:06.993Z,6.72
2022-11-23T22:51:34.785Z,9.73
2022-11-23T22:54:03.148Z,10.32
2022-11-23T22:56:32.206Z,15.15
2022-11-23T22:59:01.907Z,9.52
2022-11-23T23:01:33.429Z,8.88
2022-11-23T23:04:03.785Z,8.90
2022-11-23T23:06:35.308Z,8.30
2022-11-23T23:09:05.607Z,9.95
2022-11-23T23:11:35.252Z,8.32
2022-11-23T23:14:03.229Z,8.65
2022-11-23T23:16:31.278Z,7.68
2022-11-23T23:18:59.668Z,7.88
2022-11-23T23:21:28.781Z,8.10
2022-11-23T23:24:00.249Z,6.43
2022-11-23T23:26:29.033Z,8.77
2022-11-23T23:28:57.784Z,7.65
2022-11-23T23:31:26.162Z,7.95
2022-11-23T23:33:54.818Z,7.57
2022-11-23T23:36:23.936Z,8.60
2022-11-23T23:38:52.180Z,6.85
2022-11-23T23:41:21.980Z,10.93
2022-11-23T23:43:49.643Z,10.93
2022-11-23T23:46:17.788Z,7.90
2022-11-23T23:48:45.579Z,8.48
2022-11-23T23:51:14.782Z,5.28
2022-11-23T23:53:43.022Z,8.75
2022-11-23T23:56:14.219Z,7.78
2022-11-23T23:58:46.860Z,6.72
